sensor_id;sensor_type;location;lat;lon;timestamp;pressure;altitude;pressure_sealevel;temperature;humidity
49723;BME280;43484;43.608;1.458;2022-08-11T00:01:04;99492.38;;;27.91;100.00
49723;BME280;43484;43.608;1.458;2022-08-11T00:03:31;99491.00;;;28.01;100.00
49723;BME280;43484;43.608;1.458;2022-08-11T00:06:09;99483.84;;;27.85;100.00
49723;BME280;43484;43.608;1.458;2022-08-11T00:08:37;99483.00;;;27.84;100.00
49723;BME280;43484;43.608;1.458;2022-08-11T00:11:06;99486.69;;;27.80;100.00
49723;BME280;43484;43.608;1.458;2022-08-11T00:13:38;99481.25;;;27.65;100.00
49723;BME280;43484;43.608;1.458;2022-08-11T00:16:22;99478.59;;;27.66;100.00
49723;BME280;43484;43.608;1.458;2022-08-11T00:18:51;99479.41;;;27.67;100.00
49723;BME280;43484;43.608;1.458;2022-08-11T00:21:21;99479.00;;;27.57;100.00
49723;BME280;43484;43.608;1.458;2022-08-11T00:24:09;99475.56;;;27.55;100.00
49723;BME280;43484;43.608;1.458;2022-08-11T00:26:36;99475.72;;;27.52;100.00
49723;BME280;43484;43.608;1.458;2022-08-11T00:29:10;99471.56;;;27.47;100.00
49723;BME280;43484;43.608;1.458;2022-08-11T00:31:44;99477.56;;;27.50;100.00
49723;BME280;43484;43.608;1.458;2022-08-11T00:34:16;99481.38;;;27.43;100.00
49723;BME280;43484;43.608;1.458;2022-08-11T00:36:52;99478.50;;;27.29;100.00
49723;BME280;43484;43.608;1.458;2022-08-11T00:39:22;99471.34;;;27.33;100.00
49723;BME280;43484;43.608;1.458;2022-08-11T00:41:57;99477.84;;;27.24;100.00
49723;BME280;43484;43.608;1.458;2022-08-11T00:47:26;99484.06;;;27.22;100.00
49723;BME280;43484;43.608;1.458;2022-08-11T01:07:07;99507.38;;;27.31;100.00
49723;BME280;43484;43.608;1.458;2022-08-11T01:12:52;99505.91;;;27.24;100.00
49723;BME280;43484;43.608;1.458;2022-08-11T01:35:34;99476.75;;;26.88;100.00
49723;BME280;43484;43.608;1.458;2022-08-11T01:47:32;99485.06;;;26.99;100.00
49723;BME280;43484;43.608;1.458;2022-08-11T02:01:31;99487.94;;;26.93;100.00
49723;BME280;43484;43.608;1.458;2022-08-11T02:10:04;99483.09;;;26.84;100.00
49723;BME280;43484;43.608;1.458;2022-08-11T02:13:31;99487.16;;;26.71;100.00
49723;BME280;43484;43.608;1.458;2022-08-11T02:16:09;99489.50;;;26.77;100.00
49723;BME280;43484;43.608;1.458;2022-08-11T02:18:41;99485.50;;;26.68;100.00
49723;BME280;43484;43.608;1.458;2022-08-11T02:21:44;99502.78;;;26.74;100.00
49723;BME280;43484;43.608;1.458;2022-08-11T02:24:42;99492.56;;;26.66;100.00
49723;BME280;43484;43.608;1.458;2022-08-11T02:27:19;99503.31;;;26.82;100.00
49723;BME280;43484;43.608;1.458;2022-08-11T02:36:19;99503.59;;;26.76;100.00
49723;BME280;43484;43.608;1.458;2022-08-11T02:39:00;99508.84;;;26.76;100.00
49723;BME280;43484;43.608;1.458;2022-08-11T02:44:33;99502.06;;;26.70;100.00
49723;BME280;43484;43.608;1.458;2022-08-11T02:47:10;99484.38;;;26.52;100.00
49723;BME280;43484;43.608;1.458;2022-08-11T02:50:11;99474.44;;;26.39;100.00
49723;BME280;43484;43.608;1.458;2022-08-11T02:52:55;99475.63;;;26.52;100.00
49723;BME280;43484;43.608;1.458;2022-08-11T03:01:05;99478.56;;;26.44;100.00
49723;BME280;43484;43.608;1.458;2022-08-11T03:03:50;99475.16;;;26.42;100.00
49723;BME280;43484;43.608;1.458;2022-08-11T03:09:24;99468.06;;;26.44;100.00
49723;BME280;43484;43.608;1.458;2022-08-11T03:12:08;99461.31;;;26.39;100.00
49723;BME280;43484;43.608;1.458;2022-08-11T03:15:10;99462.13;;;26.39;100.00
49723;BME280;43484;43.608;1.458;2022-08-11T03:20:43;99462.19;;;26.38;100.00
49723;BME280;43484;43.608;1.458;2022-08-11T03:23:23;99462.94;;;26.41;100.00
49723;BME280;43484;43.608;1.458;2022-08-11T03:26:01;99451.34;;;26.25;100.00
49723;BME280;43484;43.608;1.458;2022-08-11T03:28:41;99459.09;;;26.28;100.00
49723;BME280;43484;43.608;1.458;2022-08-11T03:31:26;99471.38;;;26.28;100.00
49723;BME280;43484;43.608;1.458;2022-08-11T03:33:58;99462.66;;;26.27;100.00
49723;BME280;43484;43.608;1.458;2022-08-11T03:42:53;99461.91;;;26.24;100.00
49723;BME280;43484;43.608;1.458;2022-08-11T03:51:06;99439.50;;;26.15;100.00
49723;BME280;43484;43.608;1.458;2022-08-11T03:53:53;99438.81;;;26.10;100.00
49723;BME280;43484;43.608;1.458;2022-08-11T03:59:16;99455.94;;;26.20;100.00
49723;BME280;43484;43.608;1.458;2022-08-11T04:02:25;99469.94;;;26.21;100.00
49723;BME280;43484;43.608;1.458;2022-08-11T04:10:39;99458.09;;;26.09;100.00
49723;BME280;43484;43.608;1.458;2022-08-11T04:13:24;99457.44;;;26.04;100.00
49723;BME280;43484;43.608;1.458;2022-08-11T04:21:56;99473.63;;;26.15;100.00
49723;BME280;43484;43.608;1.458;2022-08-11T04:30:16;99496.91;;;26.24;100.00
49723;BME280;43484;43.608;1.458;2022-08-11T04:57:26;99490.34;;;25.89;100.00
49723;BME280;43484;43.608;1.458;2022-08-11T05:00:16;99484.31;;;25.87;100.00
49723;BME280;43484;43.608;1.458;2022-08-11T05:09:00;99489.56;;;25.87;100.00
49723;BME280;43484;43.608;1.458;2022-08-11T05:11:59;99496.16;;;25.97;100.00
49723;BME280;43484;43.608;1.458;2022-08-11T05:14:33;99505.69;;;26.02;100.00
49723;BME280;43484;43.608;1.458;2022-08-11T05:17:31;99510.09;;;25.99;100.00
49723;BME280;43484;43.608;1.458;2022-08-11T05:20:18;99501.53;;;25.94;100.00
49723;BME280;43484;43.608;1.458;2022-08-11T05:23:08;99508.31;;;26.02;100.00
49723;BME280;43484;43.608;1.458;2022-08-11T05:25:56;99504.03;;;25.97;100.00
49723;BME280;43484;43.608;1.458;2022-08-11T05:29:04;99504.84;;;25.99;100.00
49723;BME280;43484;43.608;1.458;2022-08-11T05:32:12;99515.41;;;25.98;100.00
49723;BME280;43484;43.608;1.458;2022-08-11T05:35:01;99501.09;;;25.83;100.00
49723;BME280;43484;43.608;1.458;2022-08-11T05:40:03;99507.91;;;25.87;100.00
49723;BME280;43484;43.608;1.458;2022-08-11T05:42:54;99517.97;;;25.99;100.00
49723;BME280;43484;43.608;1.458;2022-08-11T05:45:42;99526.63;;;26.03;100.00
49723;BME280;43484;43.608;1.458;2022-08-11T05:48:33;99529.34;;;26.00;100.00
49723;BME280;43484;43.608;1.458;2022-08-11T05:51:19;99534.44;;;26.05;100.00
49723;BME280;43484;43.608;1.458;2022-08-11T05:54:22;99538.00;;;26.04;100.00
49723;BME280;43484;43.608;1.458;2022-08-11T05:57:20;99540.44;;;26.08;100.00
49723;BME280;43484;43.608;1.458;2022-08-11T06:00:08;99530.41;;;25.94;100.00
49723;BME280;43484;43.608;1.458;2022-08-11T06:02:42;99519.59;;;26.04;100.00
49723;BME280;43484;43.608;1.458;2022-08-11T06:05:10;99522.28;;;26.02;100.00
49723;BME280;43484;43.608;1.458;2022-08-11T06:07:38;99527.25;;;26.10;100.00
49723;BME280;43484;43.608;1.458;2022-08-11T06:10:25;99534.22;;;26.11;100.00
49723;BME280;43484;43.608;1.458;2022-08-11T06:12:52;99526.34;;;26.11;100.00
49723;BME280;43484;43.608;1.458;2022-08-11T06:15:21;99541.16;;;26.12;100.00
49723;BME280;43484;43.608;1.458;2022-08-11T06:17:48;99533.84;;;26.20;100.00
49723;BME280;43484;43.608;1.458;2022-08-11T06:20:17;99520.72;;;26.20;100.00
49723;BME280;43484;43.608;1.458;2022-08-11T06:22:49;99530.13;;;26.25;100.00
49723;BME280;43484;43.608;1.458;2022-08-11T06:25:20;99515.47;;;26.20;100.00
49723;BME280;43484;43.608;1.458;2022-08-11T06:27:54;99521.66;;;26.19;100.00
49723;BME280;43484;43.608;1.458;2022-08-11T06:30:44;99534.53;;;26.25;100.00
49723;BME280;43484;43.608;1.458;2022-08-11T06:33:37;99537.91;;;26.28;100.00
49723;BME280;43484;43.608;1.458;2022-08-11T06:37:02;99536.75;;;26.35;100.00
49723;BME280;43484;43.608;1.458;2022-08-11T06:41:51;99529.06;;;26.31;100.00
49723;BME280;43484;43.608;1.458;2022-08-11T06:44:28;99531.56;;;26.34;100.00
49723;BME280;43484;43.608;1.458;2022-08-11T06:47:06;99539.13;;;26.41;100.00
49723;BME280;43484;43.608;1.458;2022-08-11T06:49:37;99544.38;;;26.41;100.00
49723;BME280;43484;43.608;1.458;2022-08-11T06:52:34;99535.06;;;26.33;100.00
49723;BME280;43484;43.608;1.458;2022-08-11T06:55:11;99540.84;;;26.42;100.00
49723;BME280;43484;43.608;1.458;2022-08-11T06:57:59;99538.22;;;26.42;100.00
49723;BME280;43484;43.608;1.458;2022-08-11T07:00:46;99542.13;;;26.54;100.00
49723;BME280;43484;43.608;1.458;2022-08-11T07:03:16;99533.38;;;26.53;100.00
49723;BME280;43484;43.608;1.458;2022-08-11T07:05:49;99534.25;;;26.54;100.00
49723;BME280;43484;43.608;1.458;2022-08-11T07:12:02;99532.22;;;26.60;100.00
49723;BME280;43484;43.608;1.458;2022-08-11T07:14:54;99535.16;;;26.74;100.00
49723;BME280;43484;43.608;1.458;2022-08-11T07:17:44;99533.41;;;26.75;100.00
49723;BME280;43484;43.608;1.458;2022-08-11T07:20:16;99534.19;;;26.77;100.00
49723;BME280;43484;43.608;1.458;2022-08-11T07:23:16;99543.28;;;26.90;100.00
49723;BME280;43484;43.608;1.458;2022-08-11T07:26:02;99547.09;;;26.83;100.00
49723;BME280;43484;43.608;1.458;2022-08-11T07:28:48;99564.19;;;26.93;100.00
49723;BME280;43484;43.608;1.458;2022-08-11T07:34:22;99561.25;;;27.00;100.00
49723;BME280;43484;43.608;1.458;2022-08-11T07:36:58;99568.81;;;27.08;100.00
49723;BME280;43484;43.608;1.458;2022-08-11T07:39:30;99575.53;;;27.15;100.00
49723;BME280;43484;43.608;1.458;2022-08-11T07:41:59;99587.66;;;27.19;100.00
49723;BME280;43484;43.608;1.458;2022-08-11T07:44:31;99581.38;;;27.22;100.00
49723;BME280;43484;43.608;1.458;2022-08-11T07:47:18;99589.94;;;27.27;100.00
49723;BME280;43484;43.608;1.458;2022-08-11T07:50:03;99582.03;;;27.28;100.00
49723;BME280;43484;43.608;1.458;2022-08-11T07:52:49;99585.19;;;27.36;100.00
49723;BME280;43484;43.608;1.458;2022-08-11T07:55:20;99590.78;;;27.49;100.00
49723;BME280;43484;43.608;1.458;2022-08-11T07:58:08;99597.94;;;27.45;100.00
49723;BME280;43484;43.608;1.458;2022-08-11T08:00:59;99600.34;;;27.51;100.00
49723;BME280;43484;43.608;1.458;2022-08-11T08:03:49;99600.84;;;27.59;100.00
49723;BME280;43484;43.608;1.458;2022-08-11T08:06:35;99608.53;;;27.64;100.00
49723;BME280;43484;43.608;1.458;2022-08-11T08:09:22;99602.31;;;27.66;100.00
49723;BME280;43484;43.608;1.458;2022-08-11T08:12:08;99605.63;;;27.70;100.00
49723;BME280;43484;43.608;1.458;2022-08-11T08:14:54;99594.78;;;27.77;100.00
49723;BME280;43484;43.608;1.458;2022-08-11T08:17:41;99597.13;;;27.83;100.00
49723;BME280;43484;43.608;1.458;2022-08-11T08:20:44;99600.41;;;27.88;100.00
49723;BME280;43484;43.608;1.458;2022-08-11T08:23:12;99594.78;;;27.97;100.00
49723;BME280;43484;43.608;1.458;2022-08-11T08:25:41;99599.84;;;28.02;100.00
49723;BME280;43484;43.608;1.458;2022-08-11T08:28:11;99601.13;;;28.12;100.00
49723;BME280;43484;43.608;1.458;2022-08-11T08:30:40;99600.00;;;28.17;100.00
49723;BME280;43484;43.608;1.458;2022-08-11T08:33:19;99604.72;;;28.29;100.00
49723;BME280;43484;43.608;1.458;2022-08-11T08:35:48;99609.91;;;28.31;100.00
49723;BME280;43484;43.608;1.458;2022-08-11T08:38:22;99619.19;;;28.40;100.00
49723;BME280;43484;43.608;1.458;2022-08-11T08:40:51;99625.09;;;28.45;100.00
49723;BME280;43484;43.608;1.458;2022-08-11T08:43:22;99619.75;;;28.46;100.00
49723;BME280;43484;43.608;1.458;2022-08-11T08:45:54;99623.16;;;28.48;100.00
49723;BME280;43484;43.608;1.458;2022-08-11T08:48:23;99620.25;;;28.54;100.00
49723;BME280;43484;43.608;1.458;2022-08-11T08:50:56;99625.28;;;28.60;100.00
49723;BME280;43484;43.608;1.458;2022-08-11T08:53:49;99619.63;;;28.68;100.00
49723;BME280;43484;43.608;1.458;2022-08-11T08:56:26;99624.66;;;28.72;100.00
49723;BME280;43484;43.608;1.458;2022-08-11T08:58:55;99623.94;;;28.69;100.00
49723;BME280;43484;43.608;1.458;2022-08-11T09:01:24;99619.03;;;28.80;100.00
49723;BME280;43484;43.608;1.458;2022-08-11T09:03:54;99623.94;;;28.87;100.00
49723;BME280;43484;43.608;1.458;2022-08-11T09:06:38;99617.44;;;28.94;100.00
49723;BME280;43484;43.608;1.458;2022-08-11T09:09:06;99623.41;;;28.98;100.00
49723;BME280;43484;43.608;1.458;2022-08-11T09:11:38;99628.38;;;29.04;100.00
49723;BME280;43484;43.608;1.458;2022-08-11T09:14:33;99619.78;;;29.00;100.00
49723;BME280;43484;43.608;1.458;2022-08-11T09:17:20;99616.34;;;29.17;100.00
49723;BME280;43484;43.608;1.458;2022-08-11T09:19:51;99612.69;;;29.19;100.00
49723;BME280;43484;43.608;1.458;2022-08-11T09:22:32;99608.13;;;29.23;100.00
49723;BME280;43484;43.608;1.458;2022-08-11T09:25:38;99602.59;;;29.27;100.00
49723;BME280;43484;43.608;1.458;2022-08-11T09:28:23;99605.78;;;29.34;100.00
49723;BME280;43484;43.608;1.458;2022-08-11T09:30:52;99613.34;;;29.41;100.00
49723;BME280;43484;43.608;1.458;2022-08-11T09:33:19;99614.19;;;29.42;100.00
49723;BME280;43484;43.608;1.458;2022-08-11T09:35:48;99611.16;;;29.49;100.00
49723;BME280;43484;43.608;1.458;2022-08-11T09:38:18;99609.28;;;29.51;100.00
49723;BME280;43484;43.608;1.458;2022-08-11T09:41:07;99605.41;;;29.59;100.00
49723;BME280;43484;43.608;1.458;2022-08-11T09:43:41;99607.47;;;29.71;100.00
49723;BME280;43484;43.608;1.458;2022-08-11T09:46:30;99596.56;;;29.77;100.00
49723;BME280;43484;43.608;1.458;2022-08-11T09:48:59;99610.28;;;29.83;100.00
49723;BME280;43484;43.608;1.458;2022-08-11T09:51:31;99604.38;;;29.95;100.00
49723;BME280;43484;43.608;1.458;2022-08-11T09:53:59;99606.50;;;30.04;100.00
49723;BME280;43484;43.608;1.458;2022-08-11T09:56:30;99602.38;;;30.16;100.00
49723;BME280;43484;43.608;1.458;2022-08-11T09:59:20;99609.38;;;30.17;100.00
49723;BME280;43484;43.608;1.458;2022-08-11T10:01:59;99605.06;;;30.14;100.00
49723;BME280;43484;43.608;1.458;2022-08-11T10:04:35;99606.47;;;30.21;100.00
49723;BME280;43484;43.608;1.458;2022-08-11T10:07:04;99603.75;;;30.23;100.00
49723;BME280;43484;43.608;1.458;2022-08-11T10:12:10;99611.69;;;30.23;100.00
49723;BME280;43484;43.608;1.458;2022-08-11T10:14:42;99600.72;;;30.30;100.00
49723;BME280;43484;43.608;1.458;2022-08-11T10:17:31;99599.09;;;30.43;100.00
49723;BME280;43484;43.608;1.458;2022-08-11T10:19:59;99595.09;;;30.52;100.00
49723;BME280;43484;43.608;1.458;2022-08-11T10:22:32;99589.63;;;30.55;100.00
49723;BME280;43484;43.608;1.458;2022-08-11T10:25:19;99596.53;;;30.73;100.00
49723;BME280;43484;43.608;1.458;2022-08-11T10:28:07;99592.09;;;30.73;100.00
49723;BME280;43484;43.608;1.458;2022-08-11T10:30:55;99588.31;;;30.79;100.00
49723;BME280;43484;43.608;1.458;2022-08-11T10:33:43;99588.53;;;30.90;100.00
49723;BME280;43484;43.608;1.458;2022-08-11T10:36:30;99591.00;;;30.93;100.00
49723;BME280;43484;43.608;1.458;2022-08-11T10:38:58;99589.97;;;30.96;100.00
49723;BME280;43484;43.608;1.458;2022-08-11T10:41:27;99588.59;;;31.04;100.00
49723;BME280;43484;43.608;1.458;2022-08-11T10:44:38;99584.00;;;31.08;100.00
49723;BME280;43484;43.608;1.458;2022-08-11T10:47:10;99586.25;;;31.14;100.00
49723;BME280;43484;43.608;1.458;2022-08-11T10:49:57;99581.84;;;31.14;100.00
49723;BME280;43484;43.608;1.458;2022-08-11T10:52:45;99582.31;;;31.21;100.00
49723;BME280;43484;43.608;1.458;2022-08-11T10:55:32;99573.34;;;31.23;100.00
49723;BME280;43484;43.608;1.458;2022-08-11T10:58:17;99572.47;;;31.38;100.00
49723;BME280;43484;43.608;1.458;2022-08-11T11:01:03;99570.13;;;31.48;100.00
49723;BME280;43484;43.608;1.458;2022-08-11T11:03:31;99572.59;;;31.51;100.00
49723;BME280;43484;43.608;1.458;2022-08-11T11:06:24;99569.00;;;31.52;100.00
49723;BME280;43484;43.608;1.458;2022-08-11T11:09:01;99567.28;;;31.51;100.00
49723;BME280;43484;43.608;1.458;2022-08-11T11:11:35;99563.81;;;31.64;100.00
49723;BME280;43484;43.608;1.458;2022-08-11T11:14:25;99569.78;;;31.68;100.00
49723;BME280;43484;43.608;1.458;2022-08-11T11:17:25;99563.91;;;31.77;100.00
49723;BME280;43484;43.608;1.458;2022-08-11T11:20:19;99555.69;;;31.67;100.00
49723;BME280;43484;43.608;1.458;2022-08-11T11:37:37;99549.38;;;31.98;92.21
49723;BME280;43484;43.608;1.458;2022-08-11T11:40:10;99544.53;;;32.05;95.05
49723;BME280;43484;43.608;1.458;2022-08-11T11:42:43;99536.84;;;32.14;91.58
49723;BME280;43484;43.608;1.458;2022-08-11T11:45:14;99534.00;;;32.31;94.20
49723;BME280;43484;43.608;1.458;2022-08-11T11:47:51;99527.06;;;32.43;93.12
49723;BME280;43484;43.608;1.458;2022-08-11T11:50:28;99525.22;;;32.57;90.37
49723;BME280;43484;43.608;1.458;2022-08-11T11:52:59;99530.34;;;32.60;90.29
49723;BME280;43484;43.608;1.458;2022-08-11T11:55:28;99521.00;;;32.67;88.91
49723;BME280;43484;43.608;1.458;2022-08-11T11:57:57;99510.66;;;32.77;89.76
49723;BME280;43484;43.608;1.458;2022-08-11T12:00:45;99514.16;;;32.77;88.93
49723;BME280;43484;43.608;1.458;2022-08-11T12:03:33;99507.28;;;32.87;87.63
49723;BME280;43484;43.608;1.458;2022-08-11T12:06:02;99501.28;;;32.98;85.49
49723;BME280;43484;43.608;1.458;2022-08-11T12:08:29;99501.31;;;33.11;84.61
49723;BME280;43484;43.608;1.458;2022-08-11T12:11:05;99499.00;;;33.19;83.65
49723;BME280;43484;43.608;1.458;2022-08-11T12:13:52;99502.06;;;33.25;81.48
49723;BME280;43484;43.608;1.458;2022-08-11T12:16:21;99501.31;;;33.23;81.86
49723;BME280;43484;43.608;1.458;2022-08-11T12:19:03;99496.44;;;33.17;81.41
49723;BME280;43484;43.608;1.458;2022-08-11T12:21:32;99491.44;;;33.25;79.40
49723;BME280;43484;43.608;1.458;2022-08-11T12:24:00;99485.72;;;33.19;80.29
49723;BME280;43484;43.608;1.458;2022-08-11T12:26:48;99480.09;;;33.23;80.14
49723;BME280;43484;43.608;1.458;2022-08-11T12:29:35;99473.81;;;33.24;80.05
49723;BME280;43484;43.608;1.458;2022-08-11T12:32:07;99467.88;;;33.33;80.11
49723;BME280;43484;43.608;1.458;2022-08-11T12:34:35;99468.97;;;33.43;80.81
49723;BME280;43484;43.608;1.458;2022-08-11T12:37:03;99469.38;;;33.50;80.08
49723;BME280;43484;43.608;1.458;2022-08-11T12:39:45;99471.47;;;33.70;78.53
49723;BME280;43484;43.608;1.458;2022-08-11T12:42:51;99472.00;;;33.87;76.43
49723;BME280;43484;43.608;1.458;2022-08-11T12:45:54;99471.69;;;33.92;74.78
49723;BME280;43484;43.608;1.458;2022-08-11T12:48:27;99465.59;;;33.90;73.84
49723;BME280;43484;43.608;1.458;2022-08-11T12:51:31;99468.25;;;33.90;72.07
49723;BME280;43484;43.608;1.458;2022-08-11T13:00:14;99452.31;;;33.90;68.68
49723;BME280;43484;43.608;1.458;2022-08-11T13:03:01;99447.31;;;33.98;69.14
49723;BME280;43484;43.608;1.458;2022-08-11T13:05:51;99449.88;;;33.99;70.84
49723;BME280;43484;43.608;1.458;2022-08-11T13:08:21;99451.47;;;34.02;69.33
49723;BME280;43484;43.608;1.458;2022-08-11T13:10:49;99447.41;;;34.09;65.80
49723;BME280;43484;43.608;1.458;2022-08-11T13:13:36;99441.16;;;33.97;65.80
49723;BME280;43484;43.608;1.458;2022-08-11T13:16:31;99432.09;;;34.00;64.40
49723;BME280;43484;43.608;1.458;2022-08-11T13:18:58;99436.31;;;34.15;63.68
49723;BME280;43484;43.608;1.458;2022-08-11T13:21:27;99430.88;;;34.16;62.59
49723;BME280;43484;43.608;1.458;2022-08-11T13:23:54;99420.03;;;34.19;61.67
49723;BME280;43484;43.608;1.458;2022-08-11T13:26:36;99429.13;;;34.28;62.01
49723;BME280;43484;43.608;1.458;2022-08-11T13:29:26;99428.16;;;34.29;57.88
49723;BME280;43484;43.608;1.458;2022-08-11T13:31:57;99428.41;;;34.26;58.51
49723;BME280;43484;43.608;1.458;2022-08-11T13:34:29;99424.41;;;34.32;56.64
49723;BME280;43484;43.608;1.458;2022-08-11T13:37:00;99424.31;;;34.33;55.13
49723;BME280;43484;43.608;1.458;2022-08-11T13:39:29;99412.94;;;34.31;58.89
49723;BME280;43484;43.608;1.458;2022-08-11T13:41:58;99415.22;;;34.48;54.11
49723;BME280;43484;43.608;1.458;2022-08-11T13:44:27;99411.88;;;34.57;51.69
49723;BME280;43484;43.608;1.458;2022-08-11T13:46:58;99406.84;;;34.76;51.82
49723;BME280;43484;43.608;1.458;2022-08-11T13:49:27;99404.84;;;34.91;51.02
49723;BME280;43484;43.608;1.458;2022-08-11T13:51:55;99394.94;;;35.04;49.26
49723;BME280;43484;43.608;1.458;2022-08-11T13:54:28;99388.91;;;35.13;50.26
49723;BME280;43484;43.608;1.458;2022-08-11T13:57:00;99391.91;;;35.08;53.16
49723;BME280;43484;43.608;1.458;2022-08-11T13:59:27;99393.63;;;35.09;52.96
49723;BME280;43484;43.608;1.458;2022-08-11T14:01:59;99391.72;;;35.11;49.42
49723;BME280;43484;43.608;1.458;2022-08-11T14:07:19;99389.75;;;35.02;47.99
49723;BME280;43484;43.608;1.458;2022-08-11T14:09:54;99378.72;;;34.96;46.34
49723;BME280;43484;43.608;1.458;2022-08-11T14:12:25;99388.75;;;35.03;46.48
49723;BME280;43484;43.608;1.458;2022-08-11T14:15:23;99379.84;;;35.04;46.78
49723;BME280;43484;43.608;1.458;2022-08-11T14:17:56;99376.56;;;35.12;43.33
49723;BME280;43484;43.608;1.458;2022-08-11T14:20:28;99377.41;;;35.23;44.77
49723;BME280;43484;43.608;1.458;2022-08-11T14:23:16;99367.00;;;35.31;44.90
49723;BME280;43484;43.608;1.458;2022-08-11T14:25:46;99374.16;;;35.42;42.34
49723;BME280;43484;43.608;1.458;2022-08-11T14:28:33;99368.97;;;35.41;42.82
49723;BME280;43484;43.608;1.458;2022-08-11T14:31:09;99365.69;;;35.48;43.43
49723;BME280;43484;43.608;1.458;2022-08-11T14:33:37;99363.38;;;35.55;44.71
49723;BME280;43484;43.608;1.458;2022-08-11T14:36:28;99366.53;;;35.60;44.59
49723;BME280;43484;43.608;1.458;2022-08-11T14:38:56;99362.53;;;35.65;43.38
49723;BME280;43484;43.608;1.458;2022-08-11T14:41:23;99363.47;;;35.64;43.69
49723;BME280;43484;43.608;1.458;2022-08-11T14:44:30;99348.81;;;35.70;43.27
49723;BME280;43484;43.608;1.458;2022-08-11T14:47:17;99349.50;;;35.83;42.61
49723;BME280;43484;43.608;1.458;2022-08-11T14:49:55;99340.44;;;35.85;41.14
49723;BME280;43484;43.608;1.458;2022-08-11T14:52:38;99336.69;;;35.66;43.94
49723;BME280;43484;43.608;1.458;2022-08-11T14:55:11;99338.41;;;35.67;45.10
49723;BME280;43484;43.608;1.458;2022-08-11T14:57:57;99339.75;;;35.61;42.99
49723;BME280;43484;43.608;1.458;2022-08-11T15:00:25;99338.06;;;35.49;43.58
49723;BME280;43484;43.608;1.458;2022-08-11T15:02:53;99337.34;;;35.47;44.82
49723;BME280;43484;43.608;1.458;2022-08-11T15:05:45;99331.31;;;35.45;46.00
49723;BME280;43484;43.608;1.458;2022-08-11T15:08:25;99320.38;;;35.59;45.18
49723;BME280;43484;43.608;1.458;2022-08-11T15:11:12;99320.25;;;35.61;43.40
49723;BME280;43484;43.608;1.458;2022-08-11T15:14:00;99319.97;;;35.64;43.75
49723;BME280;43484;43.608;1.458;2022-08-11T15:16:28;99313.16;;;35.82;43.53
49723;BME280;43484;43.608;1.458;2022-08-11T15:19:14;99308.63;;;36.04;41.51
49723;BME280;43484;43.608;1.458;2022-08-11T15:21:42;99310.47;;;36.24;42.23
49723;BME280;43484;43.608;1.458;2022-08-11T15:24:27;99305.44;;;36.42;41.76
49723;BME280;43484;43.608;1.458;2022-08-11T15:26:57;99299.38;;;36.40;43.13
49723;BME280;43484;43.608;1.458;2022-08-11T15:29:44;99304.66;;;36.51;42.53
49723;BME280;43484;43.608;1.458;2022-08-11T15:32:31;99300.47;;;36.58;41.52
49723;BME280;43484;43.608;1.458;2022-08-11T15:35:18;99289.22;;;37.05;39.30
49723;BME280;43484;43.608;1.458;2022-08-11T15:38:06;99292.63;;;37.37;37.84
49723;BME280;43484;43.608;1.458;2022-08-11T15:40:39;99297.50;;;37.72;35.63
49723;BME280;43484;43.608;1.458;2022-08-11T15:43:30;99296.91;;;37.78;35.50
49723;BME280;43484;43.608;1.458;2022-08-11T15:46:21;99297.34;;;37.74;34.84
49723;BME280;43484;43.608;1.458;2022-08-11T15:48:51;99290.47;;;37.90;32.92
49723;BME280;43484;43.608;1.458;2022-08-11T15:51:35;99285.97;;;37.91;31.91
49723;BME280;43484;43.608;1.458;2022-08-11T15:54:07;99283.72;;;38.24;30.71
49723;BME280;43484;43.608;1.458;2022-08-11T15:56:36;99285.69;;;38.22;30.64
49723;BME280;43484;43.608;1.458;2022-08-11T15:59:08;99287.81;;;38.38;30.45
49723;BME280;43484;43.608;1.458;2022-08-11T16:02:13;99284.44;;;38.26;29.52
49723;BME280;43484;43.608;1.458;2022-08-11T16:05:02;99288.22;;;38.24;29.06
49723;BME280;43484;43.608;1.458;2022-08-11T16:07:32;99278.50;;;38.32;29.07
49723;BME280;43484;43.608;1.458;2022-08-11T16:10:13;99278.88;;;38.56;28.42
49723;BME280;43484;43.608;1.458;2022-08-11T16:12:48;99281.66;;;38.74;28.37
49723;BME280;43484;43.608;1.458;2022-08-11T16:15:44;99271.25;;;38.71;29.50
49723;BME280;43484;43.608;1.458;2022-08-11T16:18:35;99269.59;;;38.70;31.25
49723;BME280;43484;43.608;1.458;2022-08-11T16:21:12;99270.16;;;38.64;29.72
49723;BME280;43484;43.608;1.458;2022-08-11T16:24:01;99267.06;;;38.68;28.83
49723;BME280;43484;43.608;1.458;2022-08-11T16:26:30;99263.53;;;38.68;29.91
49723;BME280;43484;43.608;1.458;2022-08-11T16:29:18;99259.72;;;38.51;29.19
49723;BME280;43484;43.608;1.458;2022-08-11T16:31:49;99267.09;;;38.40;31.96
49723;BME280;43484;43.608;1.458;2022-08-11T16:34:38;99258.75;;;38.43;34.06
49723;BME280;43484;43.608;1.458;2022-08-11T16:37:23;99262.16;;;38.35;34.78
49723;BME280;43484;43.608;1.458;2022-08-11T16:40:10;99259.88;;;38.40;35.25
49723;BME280;43484;43.608;1.458;2022-08-11T16:42:40;99259.19;;;38.29;34.96
49723;BME280;43484;43.608;1.458;2022-08-11T16:45:38;99264.41;;;38.40;34.54
49723;BME280;43484;43.608;1.458;2022-08-11T16:48:27;99260.88;;;38.39;34.19
49723;BME280;43484;43.608;1.458;2022-08-11T16:51:05;99261.47;;;38.24;34.58
49723;BME280;43484;43.608;1.458;2022-08-11T16:53:32;99256.97;;;38.24;33.78
49723;BME280;43484;43.608;1.458;2022-08-11T16:56:22;99263.72;;;38.38;34.41
49723;BME280;43484;43.608;1.458;2022-08-11T16:58:53;99249.03;;;38.61;35.32
49723;BME280;43484;43.608;1.458;2022-08-11T17:01:46;99256.34;;;38.49;35.72
49723;BME280;43484;43.608;1.458;2022-08-11T17:07:00;99264.59;;;38.19;36.02
49723;BME280;43484;43.608;1.458;2022-08-11T17:10:08;99268.50;;;38.15;36.00
49723;BME280;43484;43.608;1.458;2022-08-11T17:13:19;99266.94;;;37.94;36.23
49723;BME280;43484;43.608;1.458;2022-08-11T17:15:50;99267.91;;;37.83;36.21